Houston, TX

4:12 PM CDT on September 22, 2014 (GMT -0500)
Woodlands Park Place | Change Station
CLOSE
Current Station
Personal Weather Station
Location: Houston, TX
Elevation: 92 ft
Nearby Weather Stations

Elev 92 ft 29.78 °N, 95.37 °W | Updated 4 seconds ago

Partly Cloudy
Partly Cloudy
89.7 °F
Feels Like 96 °F
N
5.0
Wind Variable Wind from NNE
Gusts 14.0 mph

Today
High -- | Low -- °F
--% Chance of Precip.
Yesterday
High -- | Low -- °F
Precip. -- in
7:09 AM 7:17 PM
Waning Crescent, 2% visible
Pressure 29.98 in
Visibility 10.0 miles
Clouds Few 4800 ft
Heat Index 96 °F
Dew Point 71 °F
Humidity 54%
Rainfall 0.00 in
Snow Depth Not available.
UV 5 out of 12
Pollen 9.50 out of 12
Ozone Moderate
PM2.5 Moderate
Flu Activity Not available.
METAR KMCJ 222055Z AUTO 00000KT 10SM FEW048 33/20 A2998 RMK AO1

More Conditions Fewer Conditions

Pressure 29.98 in
Visibility 10.0 miles
Clouds Few 4800 ft
Heat Index 96 °F
Dew Point 71 °F
Humidity 54%
Rainfall 0.00 in
Snow Depth Not available.
UV 5 out of 12
Pollen 9.50 out of 12
Ozone Moderate
PM2.5 Moderate
Flu Activity Not available.
METAR KMCJ 222055Z AUTO 00000KT 10SM FEW048 33/20 A2998 RMK AO1

More Conditions Fewer Conditions

10-Day Weather Forecast

Almanac

Astronomy

Sep. 22, 2014 Rise Set
Actual Time 7:09 AM CDT 7:17 PM CDT
Civil Twilight 6:46 AM CDT 7:41 PM CDT
Nautical Twilight 6:18 AM CDT 8:09 PM CDT
Astronomical Twilight 5:50 AM CDT 8:37 PM CDT
Moon 5:44 AM CDT 6:23 PM CDT
Length of Visible Light 12h 55m
Length of Day
12h 08m
Tomorrow will be 1m 46s shorter.
Waning Crescent, 2% of the Moon is Illuminated
Today
Waning Crescent
Sep 24
New
Oct 1
First Quarter
Oct 8
Full
Oct 15
Last Quarter

Today's Extremes

State Highs State Lows

Community

WunderPhotos

Upload Photos

1,755,533 photos uploaded!

Nearby

Air Quality

  Air Quality AQ Index Pollutant
Yesterday Unhealthy for Sensitive Groups
OZONE
Yesterday Moderate
PM2.5
Current Moderate
PM2.5
Current Moderate
OZONE
Monday Unhealthy for Sensitive Groups
OZONE
Monday Good
PM10
Tuesday Moderate
OZONE
Tuesday Good
PM10
Wednesday Unhealthy for Sensitive Groups
OZONE
Wednesday Good
PM10
Thursday Moderate
OZONE
Thursday Good
PM10

Snow Depth

Station Depth Elevation
No new snow has been reported.

Earthquake Activity

City Distance Mag. Time & Date
No recent earthquake activity has been reported nearby.
Minimum magnitude displayed is 2.5.

Coastal Water Temperatures

Place Temperature
Eagle Point, TX 86.0 °F
USCG Freeport, TX 82.9 °F
Galveston Pier TX 84.0 °F
Galveston Bay (North Jetty), TX 82.9 °F
Rollover Pass, TX 82.9 °F

Nearby Weather Stations